createdAt,value
2018-04-20T00:00:06.209Z,0
2018-04-20T00:00:46.786Z,0
2018-04-20T00:01:27.357Z,0
2018-04-20T00:02:07.975Z,0
2018-04-20T00:02:48.485Z,0
2018-04-20T00:03:29.050Z,0
2018-04-20T00:04:09.626Z,0
2018-04-20T00:04:50.197Z,0
2018-04-20T00:05:30.741Z,0
2018-04-20T00:06:11.329Z,0
2018-04-20T00:06:51.879Z,0
2018-04-20T00:07:32.443Z,0
2018-04-20T00:08:13.004Z,0
2018-04-20T00:08:53.609Z,0
2018-04-20T00:09:34.170Z,0
2018-04-20T00:10:14.740Z,0
2018-04-20T00:11:09.820Z,0
2018-04-20T00:11:50.389Z,0
2018-04-20T00:12:30.965Z,0
2018-04-20T00:13:11.547Z,0
2018-04-20T00:13:52.099Z,0
2018-04-20T00:14:32.656Z,0
2018-04-20T00:15:13.237Z,0
2018-04-20T00:15:53.816Z,0
2018-04-20T00:16:34.377Z,0
2018-04-20T00:17:14.948Z,0
2018-04-20T00:17:55.512Z,0
2018-04-20T00:18:36.122Z,0
2018-04-20T00:19:16.691Z,0
2018-04-20T00:19:57.284Z,0
2018-04-20T00:20:37.889Z,0
2018-04-20T00:21:18.465Z,0
2018-04-20T00:21:59.026Z,0
2018-04-20T00:22:39.639Z,0
2018-04-20T00:23:27.123Z,0
2018-04-20T00:24:07.678Z,0
2018-04-20T00:24:48.233Z,0
2018-04-20T00:25:28.811Z,0
2018-04-20T00:26:09.383Z,0
2018-04-20T00:26:49.957Z,0
2018-04-20T00:27:30.515Z,0
2018-04-20T00:28:11.071Z,0
2018-04-20T00:28:51.629Z,0
2018-04-20T00:29:32.189Z,0
2018-04-20T00:30:12.724Z,0
2018-04-20T00:30:53.290Z,0
2018-04-20T00:31:33.854Z,0
2018-04-20T00:32:14.419Z,0
2018-04-20T00:32:54.986Z,0
2018-04-20T00:33:35.566Z,0
2018-04-20T00:34:16.176Z,0
2018-04-20T00:34:56.727Z,0
2018-04-20T00:35:37.275Z,0
2018-04-20T00:36:17.844Z,0
2018-04-20T00:36:58.429Z,0
2018-04-20T00:37:39.030Z,0
2018-04-20T00:38:19.622Z,0
2018-04-20T00:39:00.181Z,0
2018-04-20T00:39:40.743Z,0
2018-04-20T00:40:21.308Z,0
2018-04-20T00:41:01.874Z,0
2018-04-20T00:41:42.471Z,0
2018-04-20T00:42:23.035Z,0
2018-04-20T00:43:03.589Z,0
2018-04-20T00:43:44.154Z,0
2018-04-20T00:44:24.728Z,0
2018-04-20T00:45:05.283Z,0
2018-04-20T00:45:46.026Z,0
2018-04-20T00:46:26.594Z,0
2018-04-20T00:47:07.171Z,0
2018-04-20T00:47:47.741Z,0
2018-04-20T00:48:28.303Z,0
2018-04-20T00:49:08.856Z,0
2018-04-20T00:49:49.407Z,0
2018-04-20T00:50:29.959Z,0
2018-04-20T00:51:10.545Z,0
2018-04-20T00:51:51.106Z,0
2018-04-20T00:52:31.673Z,0
2018-04-20T00:53:12.279Z,0
2018-04-20T00:53:52.843Z,0
2018-04-20T00:54:33.427Z,0
2018-04-20T00:55:14.022Z,0
2018-04-20T00:55:54.589Z,0
2018-04-20T00:56:35.194Z,0
2018-04-20T00:57:15.772Z,0
2018-04-20T00:57:56.333Z,0
2018-04-20T00:58:36.882Z,0
2018-04-20T00:59:17.452Z,0
2018-04-20T00:59:58.014Z,0
2018-04-20T01:00:38.593Z,0
2018-04-20T01:01:19.214Z,0
2018-04-20T01:01:59.766Z,0
2018-04-20T01:02:40.335Z,0
2018-04-20T01:03:20.880Z,0
2018-04-20T01:04:01.505Z,0
2018-04-20T01:04:42.321Z,0
2018-04-20T01:05:22.983Z,0
2018-04-20T01:06:04.683Z,0
2018-04-20T01:06:45.419Z,0
2018-04-20T01:07:25.979Z,0
2018-04-20T01:08:06.686Z,0
2018-04-20T01:08:47.233Z,0
2018-04-20T01:09:27.865Z,0
2018-04-20T01:10:08.559Z,0
2018-04-20T01:10:49.067Z,0
2018-04-20T01:11:30.089Z,0
2018-04-20T01:12:10.791Z,0
2018-04-20T01:12:51.477Z,0
2018-04-20T01:13:32.110Z,0
2018-04-20T01:14:12.684Z,0
2018-04-20T01:14:53.247Z,0
2018-04-20T01:15:33.800Z,0
2018-04-20T01:16:14.373Z,0
2018-04-20T01:16:54.936Z,0
2018-04-20T01:17:35.511Z,0
2018-04-20T01:18:16.076Z,0
2018-04-20T01:18:56.667Z,0
2018-04-20T01:19:37.225Z,0
2018-04-20T01:20:17.786Z,0
2018-04-20T01:20:58.344Z,0
2018-04-20T01:21:38.911Z,0
2018-04-20T01:22:19.485Z,0
2018-04-20T01:23:00.056Z,0
2018-04-20T01:23:40.647Z,0
2018-04-20T01:24:21.226Z,0
2018-04-20T01:25:01.778Z,0
2018-04-20T01:25:42.358Z,0
2018-04-20T01:26:22.920Z,0
2018-04-20T01:27:03.481Z,0
2018-04-20T01:27:44.042Z,0
2018-04-20T01:28:24.593Z,0
2018-04-20T01:29:05.154Z,0
2018-04-20T01:29:45.734Z,0
2018-04-20T01:30:26.309Z,0
2018-04-20T01:31:06.866Z,0
2018-04-20T01:31:47.438Z,0
2018-04-20T01:32:28.001Z,0
2018-04-20T01:33:08.551Z,0
2018-04-20T01:33:49.106Z,0
2018-04-20T01:34:29.684Z,0
2018-04-20T01:35:10.246Z,0
2018-04-20T01:35:50.811Z,0
2018-04-20T01:36:31.378Z,0
2018-04-20T01:37:11.973Z,0
2018-04-20T01:39:40.116Z,0
2018-04-20T01:40:20.666Z,0
2018-04-20T01:41:01.231Z,0
2018-04-20T01:41:41.781Z,0
2018-04-20T01:42:22.332Z,0
2018-04-20T01:43:02.940Z,0
2018-04-20T01:43:43.560Z,0
2018-04-20T01:44:24.128Z,0
2018-04-20T01:45:04.709Z,0
2018-04-20T01:45:45.278Z,0
2018-04-20T01:46:25.844Z,0
2018-04-20T01:47:06.387Z,0
2018-04-20T01:47:46.943Z,0
2018-04-20T01:48:27.494Z,0
2018-04-20T01:49:08.053Z,0
2018-04-20T01:49:48.613Z,0
2018-04-20T01:50:29.221Z,0
2018-04-20T01:51:09.788Z,0
2018-04-20T01:51:50.356Z,0
2018-04-20T01:52:30.952Z,0
2018-04-20T01:53:11.525Z,0
2018-04-20T01:53:52.079Z,0
2018-04-20T01:54:32.635Z,0
2018-04-20T01:55:13.199Z,0
2018-04-20T01:55:53.762Z,0
2018-04-20T01:56:34.324Z,0
2018-04-20T01:57:14.885Z,0
2018-04-20T01:57:55.437Z,0
2018-04-20T01:58:36.001Z,0
2018-04-20T01:59:16.572Z,0
2018-04-20T01:59:57.126Z,0
2018-04-20T02:00:37.683Z,0
2018-04-20T02:01:18.262Z,0
2018-04-20T02:01:58.805Z,0
2018-04-20T02:02:39.371Z,0
2018-04-20T02:03:19.955Z,0
2018-04-20T02:04:00.515Z,0
2018-04-20T02:04:41.083Z,0
2018-04-20T02:05:21.623Z,0
2018-04-20T02:06:02.175Z,0
2018-04-20T02:06:42.784Z,0
2018-04-20T02:07:23.342Z,0
2018-04-20T02:08:03.914Z,0
2018-04-20T02:08:44.502Z,0
2018-04-20T02:09:25.083Z,0
2018-04-20T02:10:05.641Z,0
2018-04-20T02:10:46.182Z,0
2018-04-20T02:11:26.730Z,0
2018-04-20T02:12:07.297Z,0
2018-04-20T02:12:47.847Z,0
2018-04-20T02:13:28.413Z,0
2018-04-20T02:14:08.989Z,0
2018-04-20T02:14:49.577Z,0
2018-04-20T02:15:30.160Z,0
2018-04-20T02:16:10.693Z,0
2018-04-20T02:16:51.268Z,0
2018-04-20T02:17:31.833Z,0
2018-04-20T02:18:12.403Z,0
2018-04-20T02:18:52.997Z,0
2018-04-20T02:19:33.549Z,0
2018-04-20T02:20:14.089Z,0
2018-04-20T02:20:54.645Z,0
2018-04-20T02:21:35.192Z,0
2018-04-20T02:22:15.740Z,0
2018-04-20T02:22:56.297Z,0
2018-04-20T02:23:36.865Z,0
2018-04-20T02:24:17.422Z,0
2018-04-20T02:24:58.527Z,0
2018-04-20T02:25:39.281Z,0
2018-04-20T02:26:19.901Z,0
2018-04-20T02:27:00.425Z,0
2018-04-20T02:27:40.979Z,0
2018-04-20T02:28:21.583Z,0
2018-04-20T02:29:02.093Z,0
2018-04-20T02:29:42.655Z,0
2018-04-20T02:30:23.209Z,0
2018-04-20T02:31:03.827Z,0
2018-04-20T02:31:44.350Z,0
2018-04-20T02:32:24.996Z,0
2018-04-20T02:33:05.552Z,0
2018-04-20T02:33:46.124Z,0
2018-04-20T02:34:26.672Z,0
2018-04-20T02:35:07.237Z,0
2018-04-20T02:35:47.859Z,0
2018-04-20T02:36:28.415Z,0
2018-04-20T02:37:08.976Z,0
2018-04-20T02:37:49.577Z,0
2018-04-20T02:38:30.181Z,0
2018-04-20T02:39:10.768Z,0
2018-04-20T02:39:51.339Z,0
2018-04-20T02:40:31.911Z,0
2018-04-20T02:41:12.498Z,0
2018-04-20T02:41:53.032Z,0
2018-04-20T02:42:33.589Z,0
2018-04-20T02:43:14.132Z,0
2018-04-20T02:43:54.709Z,0
2018-04-20T02:44:35.279Z,0
2018-04-20T02:45:15.809Z,0
2018-04-20T02:45:56.369Z,0
2018-04-20T02:46:36.903Z,0
2018-04-20T02:47:17.501Z,0
2018-04-20T02:47:58.090Z,0
2018-04-20T02:48:38.634Z,0
2018-04-20T02:49:19.181Z,0
2018-04-20T02:49:59.796Z,0
2018-04-20T02:50:40.343Z,0
2018-04-20T02:51:20.899Z,0
2018-04-20T02:52:01.483Z,0
2018-04-20T02:52:42.041Z,0
2018-04-20T02:53:22.600Z,0
2018-04-20T02:54:03.152Z,0
2018-04-20T02:54:43.697Z,0
2018-04-20T02:55:24.280Z,0
2018-04-20T02:56:04.827Z,0
2018-04-20T02:56:45.402Z,0
2018-04-20T02:57:25.995Z,0
2018-04-20T02:58:06.570Z,0
2018-04-20T02:58:47.133Z,0
2018-04-20T02:59:27.704Z,0
2018-04-20T03:00:08.274Z,0
2018-04-20T03:00:48.845Z,0
2018-04-20T03:01:29.398Z,0
2018-04-20T03:02:09.965Z,0
2018-04-20T03:02:50.509Z,0
2018-04-20T03:03:31.080Z,0
2018-04-20T03:04:11.614Z,0
2018-04-20T03:04:52.167Z,0
2018-04-20T03:05:32.741Z,0
2018-04-20T03:06:13.302Z,0
2018-04-20T03:06:53.873Z,0
2018-04-20T03:07:34.446Z,0
2018-04-20T03:08:15.011Z,0
2018-04-20T03:08:55.572Z,0
2018-04-20T03:09:36.173Z,0
2018-04-20T03:10:16.730Z,0
2018-04-20T03:10:57.313Z,0
2018-04-20T03:11:37.880Z,0
2018-04-20T03:12:18.453Z,0
2018-04-20T03:12:59.028Z,0
2018-04-20T03:13:39.596Z,0
2018-04-20T03:14:20.147Z,0
2018-04-20T03:15:00.710Z,0
2018-04-20T03:15:41.253Z,0
2018-04-20T03:16:21.805Z,0
2018-04-20T03:17:02.375Z,0
2018-04-20T03:17:42.976Z,0
2018-04-20T03:18:23.550Z,0
2018-04-20T03:19:04.121Z,0
2018-04-20T03:19:44.695Z,0
2018-04-20T03:20:25.281Z,0
2018-04-20T03:21:05.790Z,0
2018-04-20T03:21:46.347Z,0
2018-04-20T03:22:26.893Z,0
2018-04-20T03:23:07.460Z,0
2018-04-20T03:23:48.021Z,0
2018-04-20T03:24:28.639Z,0
2018-04-20T03:25:09.191Z,0
2018-04-20T03:25:49.743Z,0
2018-04-20T03:26:30.294Z,0
2018-04-20T03:27:10.873Z,0
2018-04-20T03:27:51.434Z,0
2018-04-20T03:28:32.002Z,0
2018-04-20T03:29:12.557Z,0
2018-04-20T03:29:53.111Z,0
2018-04-20T03:30:33.643Z,0
2018-04-20T03:31:14.249Z,0
2018-04-20T03:31:54.822Z,0
2018-04-20T03:32:35.382Z,0
2018-04-20T03:33:15.942Z,0
2018-04-20T03:33:56.506Z,0
2018-04-20T03:34:37.078Z,0
2018-04-20T03:35:17.627Z,0
2018-04-20T03:35:58.181Z,0
2018-04-20T03:36:38.729Z,0
2018-04-20T03:37:19.292Z,0
2018-04-20T03:37:59.851Z,0
2018-04-20T03:38:40.449Z,0
2018-04-20T03:39:21.019Z,0
2018-04-20T03:40:01.589Z,0
2018-04-20T03:40:42.145Z,0
2018-04-20T03:41:22.742Z,0
2018-04-20T03:42:03.308Z,0
2018-04-20T03:42:43.864Z,0
2018-04-20T03:43:24.415Z,0
2018-04-20T03:44:04.993Z,0
2018-04-20T03:44:45.548Z,0
2018-04-20T03:45:26.112Z,0
2018-04-20T03:46:06.667Z,0
2018-04-20T03:46:47.241Z,0
2018-04-20T03:47:27.826Z,0
2018-04-20T03:48:08.368Z,0
2018-04-20T03:48:48.961Z,0
2018-04-20T03:49:29.586Z,0
2018-04-20T03:50:10.151Z,0
2018-04-20T03:50:50.697Z,0
2018-04-20T03:51:31.258Z,0
2018-04-20T03:52:11.808Z,0
2018-04-20T03:52:52.362Z,0
2018-04-20T03:53:32.912Z,0
2018-04-20T03:54:13.476Z,0
2018-04-20T03:54:54.029Z,0
2018-04-20T03:55:34.595Z,0
2018-04-20T03:56:15.172Z,0
2018-04-20T03:56:55.696Z,0
2018-04-20T03:57:36.271Z,0
2018-04-20T03:58:16.834Z,0
2018-04-20T03:58:57.397Z,0
2018-04-20T03:59:37.987Z,0
2018-04-20T04:00:18.537Z,5
2018-04-20T04:00:59.095Z,5
2018-04-20T04:01:39.651Z,5
2018-04-20T04:02:20.240Z,5
2018-04-20T04:03:00.795Z,5
2018-04-20T04:03:41.355Z,5
2018-04-20T04:04:21.916Z,5
2018-04-20T04:05:02.457Z,5
2018-04-20T04:05:43.021Z,5
2018-04-20T04:06:23.584Z,5
2018-04-20T04:07:04.151Z,5
2018-04-20T04:07:44.718Z,5
2018-04-20T04:08:25.274Z,5
2018-04-20T04:09:05.877Z,10
2018-04-20T04:09:46.443Z,10
2018-04-20T04:10:27.044Z,10
2018-04-20T04:11:07.612Z,10
2018-04-20T04:11:48.168Z,10
2018-04-20T04:12:28.711Z,10
2018-04-20T04:13:09.280Z,10
2018-04-20T04:13:49.824Z,10
2018-04-20T04:14:30.382Z,10
2018-04-20T04:15:10.943Z,10
2018-04-20T04:15:51.500Z,15
2018-04-20T04:16:32.050Z,15
2018-04-20T04:17:12.606Z,15
2018-04-20T04:17:53.149Z,15
2018-04-20T04:18:33.715Z,15
2018-04-20T04:19:14.265Z,15
2018-04-20T04:19:54.807Z,15
2018-04-20T04:20:35.391Z,15
2018-04-20T04:21:15.962Z,15
2018-04-20T04:21:56.551Z,15
2018-04-20T04:22:37.101Z,20
2018-04-20T04:23:17.649Z,20
2018-04-20T04:23:58.221Z,20
2018-04-20T04:24:38.806Z,20
2018-04-20T04:25:19.361Z,20
2018-04-20T04:27:47.437Z,20
2018-04-20T04:28:28.010Z,20
2018-04-20T04:29:08.570Z,25
2018-04-20T04:29:49.158Z,25
2018-04-20T04:30:29.695Z,25
2018-04-20T04:31:10.252Z,25
2018-04-20T04:31:50.826Z,25
2018-04-20T04:32:31.379Z,25
2018-04-20T04:33:11.944Z,25
2018-04-20T04:33:52.533Z,25
2018-04-20T04:34:33.117Z,25
2018-04-20T04:35:13.702Z,30
2018-04-20T04:35:54.270Z,30
2018-04-20T04:36:34.959Z,30
2018-04-20T04:37:15.511Z,30
2018-04-20T04:37:56.239Z,30
2018-04-20T04:38:36.896Z,30
2018-04-20T04:39:17.460Z,35
2018-04-20T04:39:58.043Z,35
2018-04-20T04:40:38.566Z,35
2018-04-20T04:41:19.148Z,35
2018-04-20T04:41:59.748Z,35
2018-04-20T04:42:40.297Z,35
2018-04-20T04:43:20.872Z,35
2018-04-20T04:44:01.485Z,35
2018-04-20T04:44:42.057Z,40
2018-04-20T04:45:22.615Z,40
2018-04-20T04:46:03.176Z,40
2018-04-20T04:46:43.728Z,40
2018-04-20T04:47:24.487Z,40
2018-04-20T04:48:05.191Z,40
2018-04-20T04:48:45.977Z,40
2018-04-20T04:49:26.913Z,40
2018-04-20T04:50:07.591Z,40
2018-04-20T04:50:48.083Z,40
2018-04-20T04:51:28.651Z,40
2018-04-20T04:52:09.267Z,40
2018-04-20T04:52:49.842Z,40
2018-04-20T04:53:30.410Z,40
2018-04-20T04:54:10.960Z,40
2018-04-20T04:54:51.536Z,45
2018-04-20T04:55:32.123Z,45
2018-04-20T04:56:12.728Z,45
2018-04-20T04:56:53.236Z,45
2018-04-20T04:57:33.798Z,45
2018-04-20T04:58:14.339Z,45
2018-04-20T04:58:54.892Z,45
2018-04-20T04:59:35.472Z,50
2018-04-20T05:00:16.892Z,50
2018-04-20T05:00:57.426Z,50
2018-04-20T05:01:37.982Z,50
2018-04-20T05:02:18.593Z,55
2018-04-20T05:02:59.168Z,55
2018-04-20T05:03:39.723Z,55
2018-04-20T05:04:20.282Z,55
2018-04-20T05:05:00.926Z,55
2018-04-20T05:05:41.503Z,50
2018-04-20T05:06:22.050Z,50
2018-04-20T05:07:02.633Z,50
2018-04-20T05:07:43.198Z,55
2018-04-20T05:08:23.741Z,55
2018-04-20T05:09:04.316Z,60
2018-04-20T05:09:44.899Z,60
2018-04-20T05:10:25.459Z,60
2018-04-20T05:11:06.031Z,60
2018-04-20T05:11:46.575Z,65
2018-04-20T05:12:27.158Z,60
2018-04-20T05:13:07.742Z,65
2018-04-20T05:13:48.433Z,65
2018-04-20T05:14:28.989Z,65
2018-04-20T05:15:09.556Z,65
2018-04-20T05:15:50.153Z,65
2018-04-20T05:16:30.710Z,65
2018-04-20T05:17:11.244Z,65
2018-04-20T05:17:51.803Z,65
2018-04-20T05:18:32.366Z,65
2018-04-20T05:19:12.958Z,65
2018-04-20T05:19:53.525Z,65
2018-04-20T05:20:34.095Z,65
2018-04-20T05:21:14.656Z,70
2018-04-20T05:21:55.211Z,70
2018-04-20T05:22:35.779Z,70
2018-04-20T05:23:16.375Z,75
2018-04-20T05:23:56.905Z,75
2018-04-20T05:24:37.451Z,80
2018-04-20T05:25:18.108Z,80
2018-04-20T05:25:58.659Z,80
2018-04-20T05:26:39.210Z,85
2018-04-20T05:27:19.918Z,85
2018-04-20T05:28:00.530Z,85
2018-04-20T05:28:41.107Z,90
2018-04-20T05:29:21.738Z,90
2018-04-20T05:30:02.293Z,90
2018-04-20T05:30:42.858Z,90
2018-04-20T05:31:23.530Z,90
2018-04-20T05:32:04.138Z,95
2018-04-20T05:32:44.715Z,95
2018-04-20T05:33:25.280Z,95
2018-04-20T05:34:05.832Z,95
2018-04-20T05:34:46.395Z,95
2018-04-20T05:35:26.955Z,95
2018-04-20T05:36:07.574Z,100
2018-04-20T05:36:48.825Z,100
2018-04-20T05:37:33.026Z,100
2018-04-20T05:38:14.242Z,100
2018-04-20T05:38:54.776Z,100
2018-04-20T05:39:35.352Z,100
2018-04-20T05:40:15.905Z,105
2018-04-20T05:40:56.483Z,105
2018-04-20T05:41:37.082Z,105
2018-04-20T05:42:17.681Z,105
2018-04-20T05:42:58.205Z,105
2018-04-20T05:43:38.947Z,110
2018-04-20T05:44:19.632Z,110
2018-04-20T05:45:00.220Z,110
2018-04-20T05:45:40.770Z,110
2018-04-20T05:46:21.315Z,110
2018-04-20T05:47:01.866Z,110
2018-04-20T05:47:42.925Z,110
2018-04-20T05:48:23.772Z,110
2018-04-20T05:49:04.400Z,110
2018-04-20T05:49:44.995Z,115
2018-04-20T05:50:25.585Z,115
2018-04-20T05:51:06.158Z,120
2018-04-20T05:51:46.716Z,120
2018-04-20T05:52:27.319Z,125
2018-04-20T05:53:08.557Z,125
2018-04-20T05:53:49.328Z,130
2018-04-20T05:54:29.883Z,130
2018-04-20T05:55:10.463Z,130
2018-04-20T05:55:51.068Z,130
2018-04-20T05:56:31.579Z,130
2018-04-20T05:57:12.136Z,135
2018-04-20T05:57:52.695Z,135
2018-04-20T05:58:33.257Z,140
2018-04-20T05:59:13.852Z,140
2018-04-20T05:59:54.420Z,140
2018-04-20T06:00:34.991Z,145
2018-04-20T06:01:15.643Z,145
2018-04-20T06:01:56.167Z,145
2018-04-20T06:02:36.941Z,150
2018-04-20T06:03:17.527Z,150
2018-04-20T06:03:58.212Z,155
2018-04-20T06:04:38.998Z,155
2018-04-20T06:05:19.590Z,155
2018-04-20T06:06:00.123Z,155
2018-04-20T06:06:40.676Z,160
2018-04-20T06:07:21.220Z,160
2018-04-20T06:08:01.774Z,160
2018-04-20T06:08:42.336Z,160
2018-04-20T06:09:22.926Z,165
2018-04-20T06:10:03.567Z,165
2018-04-20T06:10:44.138Z,165
2018-04-20T06:11:24.679Z,165
2018-04-20T06:12:05.257Z,165
2018-04-20T06:12:45.806Z,165
2018-04-20T06:13:26.359Z,170
2018-04-20T06:14:06.928Z,175
2018-04-20T06:14:47.484Z,185
2018-04-20T06:15:28.060Z,190
2018-04-20T06:16:08.631Z,195
2018-04-20T06:16:49.192Z,205
2018-04-20T06:17:29.737Z,210
2018-04-20T06:18:10.304Z,260
2018-04-20T06:18:50.867Z,335
2018-04-20T06:19:31.422Z,375
2018-04-20T06:20:12.005Z,440
2018-04-20T06:20:52.570Z,535
2018-04-20T06:21:33.145Z,700
2018-04-20T06:22:13.800Z,995
2018-04-20T06:22:54.360Z,1340
2018-04-20T06:23:34.913Z,1360
2018-04-20T06:24:15.558Z,1365
2018-04-20T06:24:56.053Z,1420
2018-04-20T06:25:36.606Z,1435
2018-04-20T06:26:17.150Z,1475
2018-04-20T06:26:57.702Z,1485
2018-04-20T06:27:38.500Z,1475
2018-04-20T06:28:19.065Z,1560
2018-04-20T06:28:59.636Z,1575
2018-04-20T06:29:40.212Z,1585
2018-04-20T06:30:20.748Z,1585
2018-04-20T06:31:01.314Z,1530
2018-04-20T06:31:42.897Z,1560
2018-04-20T06:32:23.475Z,1655
2018-04-20T06:33:04.073Z,1645
2018-04-20T06:33:44.640Z,1565
2018-04-20T06:34:25.260Z,1560
2018-04-20T06:35:05.821Z,1620
2018-04-20T06:35:46.396Z,1640
2018-04-20T06:36:26.934Z,1630
2018-04-20T06:37:07.488Z,1570
2018-04-20T06:37:48.047Z,1600
2018-04-20T06:38:28.642Z,1595
2018-04-20T06:39:09.208Z,1600
2018-04-20T06:39:49.784Z,1600
2018-04-20T06:40:30.351Z,1610
2018-04-20T06:41:10.909Z,1620
2018-04-20T06:41:51.512Z,1685
2018-04-20T06:42:32.054Z,1715
2018-04-20T06:43:12.632Z,1695
2018-04-20T06:43:53.214Z,1700
2018-04-20T06:44:33.786Z,1730
2018-04-20T06:45:14.333Z,1670
2018-04-20T06:45:54.908Z,1555
2018-04-20T06:46:35.468Z,1495
2018-04-20T06:47:16.040Z,1520
2018-04-20T06:47:56.589Z,1580
2018-04-20T06:48:37.165Z,1615
2018-04-20T06:49:17.736Z,1640
2018-04-20T06:49:58.317Z,1715
2018-04-20T06:50:38.910Z,1700
2018-04-20T06:51:19.442Z,1660
2018-04-20T06:52:00.088Z,1645
2018-04-20T06:52:40.771Z,1620
2018-04-20T06:53:21.347Z,1575
2018-04-20T06:54:01.930Z,1610
2018-04-20T06:54:42.626Z,1650
2018-04-20T06:55:23.272Z,1645
2018-04-20T06:56:03.914Z,1750
2018-04-20T06:56:44.503Z,1710
2018-04-20T06:57:25.043Z,1730
2018-04-20T06:58:05.610Z,1640
2018-04-20T06:58:46.191Z,1655
2018-04-20T06:59:26.769Z,1715
2018-04-20T07:00:07.341Z,1750
2018-04-20T07:00:47.917Z,1745
2018-04-20T07:01:28.492Z,1735
2018-04-20T07:02:09.186Z,1745
2018-04-20T07:02:49.750Z,1755
2018-04-20T07:03:30.383Z,1725
2018-04-20T07:04:10.967Z,1685
2018-04-20T07:04:51.583Z,1745
2018-04-20T07:05:32.139Z,1790
2018-04-20T07:06:12.694Z,1795
2018-04-20T07:06:53.283Z,1745
2018-04-20T07:07:33.882Z,1705
2018-04-20T07:08:14.539Z,1650
2018-04-20T07:08:55.090Z,1645
2018-04-20T07:09:35.732Z,1675
2018-04-20T07:10:16.287Z,1635
2018-04-20T07:10:56.866Z,1690
2018-04-20T07:11:37.448Z,1720
2018-04-20T07:12:18.081Z,1690
2018-04-20T07:12:58.669Z,1700
2018-04-20T07:13:39.256Z,1750
2018-04-20T07:14:19.815Z,1800
2018-04-20T07:15:00.388Z,1740
2018-04-20T07:15:41.060Z,1645
2018-04-20T07:16:21.620Z,1630
2018-04-20T07:17:02.201Z,1635
2018-04-20T07:17:42.839Z,1715
2018-04-20T07:18:23.468Z,1735
2018-04-20T07:19:04.049Z,1675
2018-04-20T07:19:44.621Z,1700
2018-04-20T07:20:25.185Z,1650
2018-04-20T07:21:05.784Z,1605
2018-04-20T07:21:46.337Z,1575
2018-04-20T07:22:26.933Z,1615
2018-04-20T07:23:07.485Z,1635
2018-04-20T07:23:48.239Z,1565
2018-04-20T07:24:28.802Z,1505
2018-04-20T07:25:09.410Z,1485
2018-04-20T07:25:49.998Z,1460
2018-04-20T07:26:30.637Z,1420
2018-04-20T07:27:11.190Z,1375
2018-04-20T07:27:51.755Z,1320
2018-04-20T07:28:32.367Z,1280
2018-04-20T07:29:12.935Z,1145
2018-04-20T07:29:53.543Z,1065
2018-04-20T07:30:34.136Z,1105
2018-04-20T07:31:14.758Z,1015
2018-04-20T07:31:55.354Z,965
2018-04-20T07:32:35.915Z,935
2018-04-20T07:33:16.495Z,895
2018-04-20T07:33:57.083Z,845
2018-04-20T07:34:37.700Z,810
2018-04-20T07:35:18.273Z,765
2018-04-20T07:35:58.852Z,725
2018-04-20T07:36:39.423Z,690
2018-04-20T07:37:19.984Z,670
2018-04-20T07:38:00.549Z,655
2018-04-20T07:38:41.147Z,635
2018-04-20T07:39:21.708Z,630
2018-04-20T07:40:02.294Z,645
2018-04-20T07:40:42.893Z,660
2018-04-20T07:41:23.518Z,665
2018-04-20T07:42:04.024Z,665
2018-04-20T07:42:44.602Z,650
2018-04-20T07:43:25.185Z,650
2018-04-20T07:44:05.772Z,650
2018-04-20T07:44:46.372Z,635
2018-04-20T07:45:26.967Z,620
2018-04-20T07:46:07.578Z,630
2018-04-20T07:46:48.143Z,640
2018-04-20T07:47:28.753Z,650
2018-04-20T07:48:09.305Z,635
2018-04-20T07:48:49.880Z,625
2018-04-20T07:49:30.465Z,615
2018-04-20T07:50:11.067Z,605
2018-04-20T07:50:51.637Z,615
2018-04-20T07:51:32.182Z,615
2018-04-20T07:52:12.759Z,605
2018-04-20T07:52:53.332Z,595
2018-04-20T07:53:33.895Z,595
2018-04-20T07:54:14.456Z,600
2018-04-20T07:54:55.016Z,600
2018-04-20T07:55:35.682Z,600
2018-04-20T07:56:16.233Z,600
2018-04-20T07:56:56.813Z,595
2018-04-20T07:57:37.400Z,595
2018-04-20T07:58:17.963Z,590
2018-04-20T07:58:58.531Z,590
2018-04-20T07:59:39.103Z,580
2018-04-20T08:00:19.737Z,575
2018-04-20T08:01:00.324Z,575
2018-04-20T08:01:40.935Z,590
2018-04-20T08:02:21.518Z,580
2018-04-20T08:03:02.102Z,575
2018-04-20T08:03:42.676Z,555
2018-04-20T08:04:23.247Z,540
2018-04-20T08:05:03.914Z,485
2018-04-20T08:05:44.506Z,450
2018-04-20T08:06:25.108Z,415
2018-04-20T08:07:05.649Z,395
2018-04-20T08:07:46.276Z,390
2018-04-20T08:08:26.858Z,410
2018-04-20T08:09:07.411Z,410
2018-04-20T08:09:47.967Z,420
2018-04-20T08:10:28.552Z,425
2018-04-20T08:11:09.130Z,420
2018-04-20T08:11:49.700Z,420
2018-04-20T08:12:30.267Z,415
2018-04-20T08:13:10.891Z,415
2018-04-20T08:13:51.451Z,410
2018-04-20T08:14:31.994Z,405
2018-04-20T08:15:12.568Z,400
2018-04-20T08:15:53.251Z,395
2018-04-20T08:16:33.817Z,390
2018-04-20T08:17:14.378Z,385
2018-04-20T08:17:54.957Z,380
2018-04-20T08:18:35.520Z,375
2018-04-20T08:19:16.080Z,370
2018-04-20T08:19:56.972Z,360
2018-04-20T08:20:37.556Z,360
2018-04-20T08:21:18.129Z,355
2018-04-20T08:21:58.678Z,350
2018-04-20T08:22:39.247Z,345
2018-04-20T08:23:19.830Z,340
2018-04-20T08:24:00.407Z,330
2018-04-20T08:24:40.979Z,325
2018-04-20T08:25:21.570Z,325
2018-04-20T08:26:02.153Z,320
2018-04-20T08:26:42.729Z,315
2018-04-20T08:27:23.308Z,310
2018-04-20T08:28:03.870Z,305
2018-04-20T08:28:44.476Z,305
2018-04-20T08:29:25.069Z,300
2018-04-20T08:30:05.637Z,295
2018-04-20T08:30:46.216Z,290
2018-04-20T08:31:26.773Z,285
2018-04-20T08:32:07.339Z,285
2018-04-20T08:32:47.917Z,280
2018-04-20T08:33:28.488Z,280
2018-04-20T08:34:09.085Z,280
2018-04-20T08:34:49.711Z,275
2018-04-20T08:35:30.274Z,270
2018-04-20T08:36:11.420Z,270
2018-04-20T08:36:52.681Z,265
2018-04-20T08:37:33.257Z,265
2018-04-20T08:38:13.833Z,260
2018-04-20T08:38:54.411Z,260
2018-04-20T08:39:35.010Z,255
2018-04-20T08:40:15.564Z,255
2018-04-20T08:40:56.123Z,250
2018-04-20T08:41:36.682Z,250
2018-04-20T08:42:17.224Z,245
2018-04-20T08:42:57.777Z,245
2018-04-20T08:43:38.347Z,240
2018-04-20T08:44:18.941Z,235
2018-04-20T08:44:59.565Z,240
2018-04-20T08:45:40.237Z,235
2018-04-20T08:46:20.836Z,235
2018-04-20T08:47:01.398Z,235
2018-04-20T08:47:41.991Z,230
2018-04-20T08:48:22.551Z,230
2018-04-20T08:49:03.107Z,230
2018-04-20T08:49:43.692Z,225
2018-04-20T08:50:24.256Z,225
2018-04-20T08:51:04.835Z,220
2018-04-20T08:51:45.416Z,220
2018-04-20T08:52:26.008Z,220
2018-04-20T08:53:06.635Z,220
2018-04-20T08:53:47.221Z,215
2018-04-20T08:54:27.794Z,215
2018-04-20T08:55:08.333Z,215
2018-04-20T08:55:48.890Z,210
2018-04-20T08:56:29.467Z,210
2018-04-20T08:57:10.022Z,210
2018-04-20T08:57:50.582Z,205
2018-04-20T08:58:31.180Z,205
2018-04-20T08:59:11.722Z,205
2018-04-20T08:59:52.394Z,205
2018-04-20T09:00:32.946Z,205
2018-04-20T09:01:13.494Z,200
2018-04-20T09:01:54.065Z,200
2018-04-20T09:02:34.624Z,200
2018-04-20T09:03:15.189Z,200
2018-04-20T09:03:55.874Z,200
2018-04-20T09:04:36.838Z,195
2018-04-20T09:05:17.191Z,195
2018-04-20T09:05:57.812Z,195
2018-04-20T09:06:38.393Z,195
2018-04-20T09:07:18.962Z,190
2018-04-20T09:07:59.548Z,190
2018-04-20T09:08:40.120Z,190
2018-04-20T09:09:20.692Z,190
2018-04-20T09:10:01.262Z,190
2018-04-20T09:10:41.899Z,185
2018-04-20T09:11:22.461Z,185
2018-04-20T09:12:03.046Z,185
2018-04-20T09:12:43.647Z,185
2018-04-20T09:13:24.294Z,185
2018-04-20T09:14:04.846Z,185
2018-04-20T09:14:45.443Z,180
2018-04-20T09:15:26.027Z,180
2018-04-20T09:16:06.569Z,180
2018-04-20T09:16:47.113Z,180
2018-04-20T09:17:27.784Z,180
2018-04-20T09:18:08.343Z,180
2018-04-20T09:18:48.909Z,180
2018-04-20T09:19:29.473Z,180
2018-04-20T09:20:10.048Z,180
2018-04-20T09:20:50.590Z,180
2018-04-20T09:21:31.167Z,180
2018-04-20T09:22:11.746Z,180
2018-04-20T09:22:52.303Z,180
2018-04-20T09:23:32.873Z,180
2018-04-20T09:24:13.431Z,180
2018-04-20T09:24:54.000Z,175
2018-04-20T09:25:34.561Z,180
2018-04-20T09:26:15.148Z,190
2018-04-20T09:26:55.748Z,190
2018-04-20T09:27:36.330Z,190
2018-04-20T09:28:16.911Z,185
2018-04-20T09:28:57.486Z,180
2018-04-20T09:29:38.034Z,175
2018-04-20T09:30:18.575Z,175
2018-04-20T09:30:59.117Z,175
2018-04-20T09:31:39.686Z,175
2018-04-20T09:32:20.231Z,170
2018-04-20T09:33:00.783Z,170
2018-04-20T09:33:41.328Z,170
2018-04-20T09:34:21.935Z,170
2018-04-20T09:35:02.479Z,170
2018-04-20T09:35:43.028Z,170
2018-04-20T09:36:23.612Z,170
2018-04-20T09:37:04.189Z,170
2018-04-20T09:37:44.771Z,170
2018-04-20T09:38:25.351Z,165
2018-04-20T09:39:05.914Z,165
2018-04-20T09:39:46.525Z,165
2018-04-20T09:40:27.040Z,165